sensor_id;sensor_type;location;lat;lon;timestamp;P1;durP1;ratioP1;P2;durP2;ratioP2
75419;SDS011;63998;52.488;13.428;2023-06-22T00:00:55;11.50;;;9.88;;
75419;SDS011;63998;52.488;13.428;2023-06-22T00:03:22;11.82;;;9.68;;
75419;SDS011;63998;52.488;13.428;2023-06-22T00:05:49;10.90;;;9.73;;
75419;SDS011;63998;52.488;13.428;2023-06-22T00:08:15;11.70;;;10.10;;
75419;SDS011;63998;52.488;13.428;2023-06-22T00:10:41;10.98;;;9.57;;
75419;SDS011;63998;52.488;13.428;2023-06-22T00:13:07;13.07;;;9.50;;
75419;SDS011;63998;52.488;13.428;2023-06-22T00:15:33;10.85;;;8.30;;
75419;SDS011;63998;52.488;13.428;2023-06-22T00:17:59;10.70;;;9.13;;
75419;SDS011;63998;52.488;13.428;2023-06-22T00:20:28;12.10;;;8.70;;
75419;SDS011;63998;52.488;13.428;2023-06-22T00:22:54;11.13;;;9.40;;
75419;SDS011;63998;52.488;13.428;2023-06-22T00:25:20;10.82;;;9.60;;
75419;SDS011;63998;52.488;13.428;2023-06-22T00:27:46;11.10;;;9.23;;
75419;SDS011;63998;52.488;13.428;2023-06-22T00:30:11;11.23;;;9.47;;
75419;SDS011;63998;52.488;13.428;2023-06-22T00:32:37;10.43;;;9.30;;
75419;SDS011;63998;52.488;13.428;2023-06-22T00:35:02;11.77;;;10.23;;
75419;SDS011;63998;52.488;13.428;2023-06-22T00:37:28;10.20;;;8.82;;
75419;SDS011;63998;52.488;13.428;2023-06-22T00:39:54;10.77;;;8.93;;
75419;SDS011;63998;52.488;13.428;2023-06-22T00:42:22;10.95;;;9.50;;
75419;SDS011;63998;52.488;13.428;2023-06-22T00:44:48;10.13;;;8.90;;
75419;SDS011;63998;52.488;13.428;2023-06-22T00:47:13;11.00;;;8.48;;
75419;SDS011;63998;52.488;13.428;2023-06-22T00:49:41;17.13;;;13.82;;
75419;SDS011;63998;52.488;13.428;2023-06-22T00:52:07;13.98;;;11.57;;
75419;SDS011;63998;52.488;13.428;2023-06-22T00:54:38;11.05;;;9.13;;
75419;SDS011;63998;52.488;13.428;2023-06-22T00:57:04;9.75;;;8.50;;
75419;SDS011;63998;52.488;13.428;2023-06-22T00:59:29;10.50;;;7.95;;
75419;SDS011;63998;52.488;13.428;2023-06-22T01:01:57;12.25;;;10.38;;
75419;SDS011;63998;52.488;13.428;2023-06-22T01:04:24;10.77;;;9.03;;
75419;SDS011;63998;52.488;13.428;2023-06-22T01:07:02;10.80;;;8.70;;
75419;SDS011;63998;52.488;13.428;2023-06-22T01:09:40;9.45;;;8.52;;
75419;SDS011;63998;52.488;13.428;2023-06-22T01:12:16;10.50;;;8.80;;
75419;SDS011;63998;52.488;13.428;2023-06-22T01:14:47;9.60;;;8.55;;
75419;SDS011;63998;52.488;13.428;2023-06-22T01:17:34;9.30;;;8.40;;
75419;SDS011;63998;52.488;13.428;2023-06-22T01:20:00;9.77;;;8.77;;
75419;SDS011;63998;52.488;13.428;2023-06-22T01:22:30;10.73;;;9.70;;
75419;SDS011;63998;52.488;13.428;2023-06-22T01:25:11;13.07;;;9.52;;
75419;SDS011;63998;52.488;13.428;2023-06-22T01:30:45;11.88;;;10.20;;
75419;SDS011;63998;52.488;13.428;2023-06-22T01:33:13;12.98;;;10.32;;
75419;SDS011;63998;52.488;13.428;2023-06-22T01:35:40;11.48;;;10.27;;
75419;SDS011;63998;52.488;13.428;2023-06-22T01:38:07;11.30;;;9.23;;
75419;SDS011;63998;52.488;13.428;2023-06-22T01:40:34;11.27;;;9.88;;
75419;SDS011;63998;52.488;13.428;2023-06-22T01:43:01;11.95;;;10.50;;
75419;SDS011;63998;52.488;13.428;2023-06-22T01:45:28;12.95;;;10.75;;
75419;SDS011;63998;52.488;13.428;2023-06-22T01:47:54;13.95;;;10.80;;
75419;SDS011;63998;52.488;13.428;2023-06-22T01:50:19;13.20;;;11.25;;
75419;SDS011;63998;52.488;13.428;2023-06-22T01:52:45;12.73;;;10.35;;
75419;SDS011;63998;52.488;13.428;2023-06-22T01:55:11;11.80;;;9.80;;
75419;SDS011;63998;52.488;13.428;2023-06-22T01:57:36;12.87;;;11.40;;
75419;SDS011;63998;52.488;13.428;2023-06-22T02:00:04;12.20;;;10.55;;
75419;SDS011;63998;52.488;13.428;2023-06-22T02:02:42;13.32;;;11.00;;
75419;SDS011;63998;52.488;13.428;2023-06-22T02:05:08;13.63;;;10.93;;
75419;SDS011;63998;52.488;13.428;2023-06-22T02:07:39;10.80;;;9.65;;
75419;SDS011;63998;52.488;13.428;2023-06-22T02:10:09;15.77;;;11.85;;
75419;SDS011;63998;52.488;13.428;2023-06-22T02:12:38;13.40;;;10.93;;
75419;SDS011;63998;52.488;13.428;2023-06-22T02:15:04;13.90;;;11.77;;
75419;SDS011;63998;52.488;13.428;2023-06-22T02:17:31;14.27;;;11.75;;
75419;SDS011;63998;52.488;13.428;2023-06-22T02:19:58;15.35;;;10.85;;
75419;SDS011;63998;52.488;13.428;2023-06-22T02:22:23;15.82;;;12.88;;
75419;SDS011;63998;52.488;13.428;2023-06-22T02:24:49;14.23;;;12.55;;
75419;SDS011;63998;52.488;13.428;2023-06-22T02:27:14;17.77;;;12.77;;
75419;SDS011;63998;52.488;13.428;2023-06-22T02:29:39;16.77;;;13.68;;
75419;SDS011;63998;52.488;13.428;2023-06-22T02:32:05;15.83;;;12.87;;
75419;SDS011;63998;52.488;13.428;2023-06-22T02:34:31;15.50;;;12.80;;
75419;SDS011;63998;52.488;13.428;2023-06-22T02:36:58;14.98;;;11.95;;
75419;SDS011;63998;52.488;13.428;2023-06-22T02:39:26;15.10;;;12.02;;
75419;SDS011;63998;52.488;13.428;2023-06-22T02:41:52;14.97;;;12.97;;
75419;SDS011;63998;52.488;13.428;2023-06-22T02:44:18;15.82;;;12.43;;
75419;SDS011;63998;52.488;13.428;2023-06-22T02:46:44;14.40;;;11.65;;
75419;SDS011;63998;52.488;13.428;2023-06-22T02:49:10;14.45;;;11.55;;
75419;SDS011;63998;52.488;13.428;2023-06-22T02:51:37;14.20;;;11.23;;
75419;SDS011;63998;52.488;13.428;2023-06-22T02:54:04;14.63;;;12.15;;
75419;SDS011;63998;52.488;13.428;2023-06-22T02:56:30;14.73;;;11.85;;
75419;SDS011;63998;52.488;13.428;2023-06-22T02:58:55;12.82;;;11.05;;
75419;SDS011;63998;52.488;13.428;2023-06-22T03:01:29;15.65;;;12.10;;
75419;SDS011;63998;52.488;13.428;2023-06-22T03:03:58;14.80;;;12.30;;
75419;SDS011;63998;52.488;13.428;2023-06-22T03:06:23;15.30;;;11.85;;
75419;SDS011;63998;52.488;13.428;2023-06-22T03:08:54;15.02;;;12.65;;
75419;SDS011;63998;52.488;13.428;2023-06-22T03:11:23;14.48;;;12.80;;
75419;SDS011;63998;52.488;13.428;2023-06-22T03:13:49;14.67;;;12.33;;
75419;SDS011;63998;52.488;13.428;2023-06-22T03:16:14;14.00;;;12.50;;
75419;SDS011;63998;52.488;13.428;2023-06-22T03:18:39;12.03;;;10.80;;
75419;SDS011;63998;52.488;13.428;2023-06-22T03:21:05;15.27;;;12.03;;
75419;SDS011;63998;52.488;13.428;2023-06-22T03:23:30;15.70;;;13.00;;
75419;SDS011;63998;52.488;13.428;2023-06-22T03:25:55;18.33;;;11.68;;
75419;SDS011;63998;52.488;13.428;2023-06-22T03:28:21;16.00;;;12.50;;
75419;SDS011;63998;52.488;13.428;2023-06-22T03:30:46;12.32;;;9.82;;
75419;SDS011;63998;52.488;13.428;2023-06-22T03:33:12;12.15;;;10.73;;
75419;SDS011;63998;52.488;13.428;2023-06-22T03:35:37;14.43;;;11.48;;
75419;SDS011;63998;52.488;13.428;2023-06-22T03:38:03;14.27;;;11.80;;
75419;SDS011;63998;52.488;13.428;2023-06-22T03:40:28;14.15;;;11.00;;
75419;SDS011;63998;52.488;13.428;2023-06-22T03:42:54;14.30;;;12.13;;
75419;SDS011;63998;52.488;13.428;2023-06-22T03:45:19;10.03;;;9.03;;
75419;SDS011;63998;52.488;13.428;2023-06-22T03:47:45;15.90;;;13.03;;
75419;SDS011;63998;52.488;13.428;2023-06-22T03:50:10;15.50;;;13.33;;
75419;SDS011;63998;52.488;13.428;2023-06-22T03:52:35;11.73;;;9.38;;
75419;SDS011;63998;52.488;13.428;2023-06-22T03:55:01;10.10;;;8.98;;
75419;SDS011;63998;52.488;13.428;2023-06-22T03:57:26;11.10;;;8.87;;
75419;SDS011;63998;52.488;13.428;2023-06-22T03:59:53;10.87;;;8.67;;
75419;SDS011;63998;52.488;13.428;2023-06-22T04:02:21;10.68;;;8.38;;
75419;SDS011;63998;52.488;13.428;2023-06-22T04:04:46;10.90;;;8.52;;
75419;SDS011;63998;52.488;13.428;2023-06-22T04:07:12;10.93;;;9.00;;
75419;SDS011;63998;52.488;13.428;2023-06-22T04:09:37;15.10;;;10.55;;
75419;SDS011;63998;52.488;13.428;2023-06-22T04:12:03;14.80;;;10.43;;
75419;SDS011;63998;52.488;13.428;2023-06-22T04:14:28;9.55;;;8.55;;
75419;SDS011;63998;52.488;13.428;2023-06-22T04:16:53;10.63;;;8.07;;
75419;SDS011;63998;52.488;13.428;2023-06-22T04:19:19;10.17;;;8.50;;
75419;SDS011;63998;52.488;13.428;2023-06-22T04:21:44;10.40;;;8.47;;
75419;SDS011;63998;52.488;13.428;2023-06-22T04:24:12;11.02;;;7.30;;
75419;SDS011;63998;52.488;13.428;2023-06-22T04:26:38;9.23;;;7.75;;
75419;SDS011;63998;52.488;13.428;2023-06-22T04:29:06;9.65;;;6.93;;
75419;SDS011;63998;52.488;13.428;2023-06-22T04:31:33;10.38;;;8.38;;
75419;SDS011;63998;52.488;13.428;2023-06-22T04:34:02;14.20;;;9.38;;
75419;SDS011;63998;52.488;13.428;2023-06-22T04:36:32;10.73;;;7.43;;
75419;SDS011;63998;52.488;13.428;2023-06-22T04:39:05;11.27;;;8.20;;
75419;SDS011;63998;52.488;13.428;2023-06-22T04:41:31;11.43;;;8.38;;
75419;SDS011;63998;52.488;13.428;2023-06-22T04:44:06;10.20;;;7.88;;
75419;SDS011;63998;52.488;13.428;2023-06-22T04:46:32;9.65;;;8.05;;
75419;SDS011;63998;52.488;13.428;2023-06-22T04:49:02;9.98;;;8.15;;
75419;SDS011;63998;52.488;13.428;2023-06-22T04:51:31;12.50;;;7.95;;
75419;SDS011;63998;52.488;13.428;2023-06-22T04:53:56;13.00;;;10.13;;
75419;SDS011;63998;52.488;13.428;2023-06-22T04:56:26;13.30;;;8.98;;
75419;SDS011;63998;52.488;13.428;2023-06-22T04:58:53;10.07;;;6.55;;
75419;SDS011;63998;52.488;13.428;2023-06-22T05:03:47;8.15;;;6.05;;
75419;SDS011;63998;52.488;13.428;2023-06-22T05:06:13;8.68;;;6.68;;
75419;SDS011;63998;52.488;13.428;2023-06-22T05:08:39;7.90;;;6.25;;
75419;SDS011;63998;52.488;13.428;2023-06-22T05:11:05;8.15;;;6.75;;
75419;SDS011;63998;52.488;13.428;2023-06-22T05:13:30;9.82;;;7.70;;
75419;SDS011;63998;52.488;13.428;2023-06-22T05:15:55;10.30;;;8.02;;
75419;SDS011;63998;52.488;13.428;2023-06-22T05:18:26;10.82;;;7.72;;
75419;SDS011;63998;52.488;13.428;2023-06-22T05:20:54;8.85;;;6.60;;
75419;SDS011;63998;52.488;13.428;2023-06-22T05:23:19;11.27;;;8.13;;
75419;SDS011;63998;52.488;13.428;2023-06-22T05:25:44;8.30;;;6.60;;
75419;SDS011;63998;52.488;13.428;2023-06-22T05:31:43;8.20;;;7.05;;
75419;SDS011;63998;52.488;13.428;2023-06-22T05:34:08;8.43;;;7.43;;
75419;SDS011;63998;52.488;13.428;2023-06-22T05:36:34;11.85;;;7.25;;
75419;SDS011;63998;52.488;13.428;2023-06-22T05:38:59;9.35;;;7.10;;
75419;SDS011;63998;52.488;13.428;2023-06-22T05:41:37;12.18;;;9.10;;
75419;SDS011;63998;52.488;13.428;2023-06-22T05:44:03;9.97;;;7.50;;
75419;SDS011;63998;52.488;13.428;2023-06-22T05:46:28;8.57;;;6.90;;
75419;SDS011;63998;52.488;13.428;2023-06-22T05:48:53;8.97;;;6.60;;
75419;SDS011;63998;52.488;13.428;2023-06-22T05:51:19;7.17;;;6.03;;
75419;SDS011;63998;52.488;13.428;2023-06-22T05:53:44;8.87;;;6.53;;
75419;SDS011;63998;52.488;13.428;2023-06-22T05:56:11;9.50;;;7.35;;
75419;SDS011;63998;52.488;13.428;2023-06-22T05:58:36;7.87;;;6.43;;
75419;SDS011;63998;52.488;13.428;2023-06-22T06:01:02;7.47;;;5.93;;
75419;SDS011;63998;52.488;13.428;2023-06-22T06:03:27;9.43;;;6.87;;
75419;SDS011;63998;52.488;13.428;2023-06-22T06:05:53;13.30;;;11.13;;
75419;SDS011;63998;52.488;13.428;2023-06-22T06:08:19;11.90;;;8.70;;
75419;SDS011;63998;52.488;13.428;2023-06-22T06:10:44;10.90;;;7.10;;
75419;SDS011;63998;52.488;13.428;2023-06-22T06:13:09;10.23;;;6.20;;
75419;SDS011;63998;52.488;13.428;2023-06-22T06:15:35;8.90;;;5.70;;
75419;SDS011;63998;52.488;13.428;2023-06-22T06:18:00;8.55;;;6.00;;
75419;SDS011;63998;52.488;13.428;2023-06-22T06:20:26;9.43;;;5.82;;
75419;SDS011;63998;52.488;13.428;2023-06-22T06:22:55;6.18;;;5.40;;
75419;SDS011;63998;52.488;13.428;2023-06-22T06:25:21;10.10;;;5.93;;
75419;SDS011;63998;52.488;13.428;2023-06-22T06:27:47;6.13;;;4.85;;
75419;SDS011;63998;52.488;13.428;2023-06-22T06:30:14;7.30;;;5.80;;
75419;SDS011;63998;52.488;13.428;2023-06-22T06:32:40;6.53;;;5.47;;
75419;SDS011;63998;52.488;13.428;2023-06-22T06:35:07;6.50;;;4.68;;
75419;SDS011;63998;52.488;13.428;2023-06-22T06:37:35;5.72;;;5.10;;
75419;SDS011;63998;52.488;13.428;2023-06-22T06:40:01;9.57;;;4.45;;
75419;SDS011;63998;52.488;13.428;2023-06-22T06:42:27;7.07;;;4.47;;
75419;SDS011;63998;52.488;13.428;2023-06-22T06:44:52;8.33;;;4.70;;
75419;SDS011;63998;52.488;13.428;2023-06-22T06:47:17;7.43;;;5.93;;
75419;SDS011;63998;52.488;13.428;2023-06-22T06:49:43;8.10;;;7.30;;
75419;SDS011;63998;52.488;13.428;2023-06-22T06:52:08;6.87;;;5.90;;
75419;SDS011;63998;52.488;13.428;2023-06-22T06:54:33;8.57;;;6.18;;
75419;SDS011;63998;52.488;13.428;2023-06-22T06:56:59;11.60;;;8.87;;
75419;SDS011;63998;52.488;13.428;2023-06-22T06:59:24;18.38;;;13.50;;
75419;SDS011;63998;52.488;13.428;2023-06-22T07:01:49;24.53;;;14.77;;
75419;SDS011;63998;52.488;13.428;2023-06-22T07:04:14;31.53;;;23.00;;
75419;SDS011;63998;52.488;13.428;2023-06-22T07:06:40;16.60;;;11.47;;
75419;SDS011;63998;52.488;13.428;2023-06-22T07:09:05;11.70;;;7.93;;
75419;SDS011;63998;52.488;13.428;2023-06-22T07:11:31;6.78;;;5.55;;
75419;SDS011;63998;52.488;13.428;2023-06-22T07:13:56;8.03;;;5.07;;
75419;SDS011;63998;52.488;13.428;2023-06-22T07:16:21;6.85;;;5.68;;
75419;SDS011;63998;52.488;13.428;2023-06-22T07:18:47;9.93;;;6.88;;
75419;SDS011;63998;52.488;13.428;2023-06-22T07:21:13;9.30;;;6.80;;
75419;SDS011;63998;52.488;13.428;2023-06-22T07:23:38;8.03;;;4.73;;
75419;SDS011;63998;52.488;13.428;2023-06-22T07:26:03;7.73;;;4.17;;
75419;SDS011;63998;52.488;13.428;2023-06-22T07:28:31;8.77;;;4.00;;
75419;SDS011;63998;52.488;13.428;2023-06-22T07:31:01;5.45;;;3.83;;
75419;SDS011;63998;52.488;13.428;2023-06-22T07:33:28;6.63;;;4.88;;
75419;SDS011;63998;52.488;13.428;2023-06-22T07:35:53;5.80;;;3.60;;
75419;SDS011;63998;52.488;13.428;2023-06-22T07:38:18;4.23;;;3.57;;
75419;SDS011;63998;52.488;13.428;2023-06-22T07:40:43;8.63;;;5.00;;
75419;SDS011;63998;52.488;13.428;2023-06-22T07:43:10;5.32;;;3.65;;
75419;SDS011;63998;52.488;13.428;2023-06-22T07:45:37;7.33;;;3.17;;
75419;SDS011;63998;52.488;13.428;2023-06-22T07:48:04;4.00;;;3.33;;
75419;SDS011;63998;52.488;13.428;2023-06-22T07:50:29;4.50;;;3.07;;
75419;SDS011;63998;52.488;13.428;2023-06-22T07:52:55;4.97;;;3.17;;
75419;SDS011;63998;52.488;13.428;2023-06-22T07:55:20;3.90;;;2.80;;
75419;SDS011;63998;52.488;13.428;2023-06-22T07:57:46;5.53;;;3.20;;
75419;SDS011;63998;52.488;13.428;2023-06-22T08:00:14;4.32;;;3.10;;
75419;SDS011;63998;52.488;13.428;2023-06-22T08:02:40;5.20;;;2.92;;
75419;SDS011;63998;52.488;13.428;2023-06-22T08:05:07;5.10;;;3.22;;
75419;SDS011;63998;52.488;13.428;2023-06-22T08:07:35;4.03;;;3.20;;
75419;SDS011;63998;52.488;13.428;2023-06-22T08:10:02;4.10;;;3.00;;
75419;SDS011;63998;52.488;13.428;2023-06-22T08:12:28;4.35;;;3.30;;
75419;SDS011;63998;52.488;13.428;2023-06-22T08:14:53;3.70;;;3.20;;
75419;SDS011;63998;52.488;13.428;2023-06-22T08:17:18;4.27;;;3.20;;
75419;SDS011;63998;52.488;13.428;2023-06-22T08:19:43;3.70;;;2.70;;
75419;SDS011;63998;52.488;13.428;2023-06-22T08:22:09;4.93;;;3.17;;
75419;SDS011;63998;52.488;13.428;2023-06-22T08:24:34;3.97;;;3.07;;
75419;SDS011;63998;52.488;13.428;2023-06-22T08:26:59;6.33;;;3.17;;
75419;SDS011;63998;52.488;13.428;2023-06-22T08:29:24;4.23;;;2.83;;
75419;SDS011;63998;52.488;13.428;2023-06-22T08:31:49;5.80;;;3.50;;
75419;SDS011;63998;52.488;13.428;2023-06-22T08:34:15;5.13;;;3.73;;
75419;SDS011;63998;52.488;13.428;2023-06-22T08:36:40;5.50;;;3.40;;
75419;SDS011;63998;52.488;13.428;2023-06-22T08:39:08;4.00;;;3.15;;
75419;SDS011;63998;52.488;13.428;2023-06-22T08:41:33;4.18;;;3.05;;
75419;SDS011;63998;52.488;13.428;2023-06-22T08:43:59;5.53;;;3.90;;
75419;SDS011;63998;52.488;13.428;2023-06-22T08:46:24;4.20;;;3.75;;
75419;SDS011;63998;52.488;13.428;2023-06-22T08:48:55;6.82;;;3.80;;
75419;SDS011;63998;52.488;13.428;2023-06-22T08:51:24;5.88;;;3.65;;
75419;SDS011;63998;52.488;13.428;2023-06-22T08:53:49;5.23;;;4.20;;
75419;SDS011;63998;52.488;13.428;2023-06-22T08:56:15;4.35;;;3.83;;
75419;SDS011;63998;52.488;13.428;2023-06-22T08:58:40;5.40;;;3.90;;
75419;SDS011;63998;52.488;13.428;2023-06-22T09:01:05;5.13;;;3.43;;
75419;SDS011;63998;52.488;13.428;2023-06-22T09:03:30;7.90;;;3.88;;
75419;SDS011;63998;52.488;13.428;2023-06-22T09:05:57;3.92;;;2.90;;
75419;SDS011;63998;52.488;13.428;2023-06-22T09:08:22;7.13;;;5.03;;
75419;SDS011;63998;52.488;13.428;2023-06-22T09:10:48;3.40;;;3.10;;
75419;SDS011;63998;52.488;13.428;2023-06-22T09:13:13;4.50;;;3.40;;
75419;SDS011;63998;52.488;13.428;2023-06-22T09:15:38;3.80;;;3.33;;
75419;SDS011;63998;52.488;13.428;2023-06-22T09:18:03;3.80;;;2.57;;
75419;SDS011;63998;52.488;13.428;2023-06-22T09:20:29;5.30;;;3.38;;
75419;SDS011;63998;52.488;13.428;2023-06-22T09:22:54;5.07;;;3.83;;
75419;SDS011;63998;52.488;13.428;2023-06-22T09:25:19;5.33;;;3.37;;
75419;SDS011;63998;52.488;13.428;2023-06-22T09:27:45;3.13;;;2.70;;
75419;SDS011;63998;52.488;13.428;2023-06-22T09:30:11;5.00;;;3.70;;
75419;SDS011;63998;52.488;13.428;2023-06-22T09:32:36;3.83;;;3.10;;
75419;SDS011;63998;52.488;13.428;2023-06-22T09:35:03;3.40;;;3.10;;
75419;SDS011;63998;52.488;13.428;2023-06-22T09:37:30;7.90;;;4.35;;
75419;SDS011;63998;52.488;13.428;2023-06-22T09:39:56;3.87;;;3.37;;
75419;SDS011;63998;52.488;13.428;2023-06-22T09:42:21;3.97;;;3.23;;
75419;SDS011;63998;52.488;13.428;2023-06-22T09:44:46;4.13;;;3.27;;
75419;SDS011;63998;52.488;13.428;2023-06-22T09:47:11;5.60;;;4.07;;
75419;SDS011;63998;52.488;13.428;2023-06-22T09:49:37;4.40;;;4.00;;
75419;SDS011;63998;52.488;13.428;2023-06-22T09:52:02;4.23;;;3.33;;
75419;SDS011;63998;52.488;13.428;2023-06-22T09:54:27;5.28;;;3.85;;
75419;SDS011;63998;52.488;13.428;2023-06-22T09:56:53;7.10;;;3.50;;
75419;SDS011;63998;52.488;13.428;2023-06-22T09:59:18;4.30;;;3.60;;
75419;SDS011;63998;52.488;13.428;2023-06-22T10:01:43;4.47;;;3.83;;
75419;SDS011;63998;52.488;13.428;2023-06-22T10:04:09;5.55;;;4.63;;
75419;SDS011;63998;52.488;13.428;2023-06-22T10:06:34;5.03;;;4.10;;
75419;SDS011;63998;52.488;13.428;2023-06-22T10:08:59;4.37;;;3.20;;
75419;SDS011;63998;52.488;13.428;2023-06-22T10:11:25;4.77;;;3.33;;
75419;SDS011;63998;52.488;13.428;2023-06-22T10:13:54;4.32;;;3.55;;
75419;SDS011;63998;52.488;13.428;2023-06-22T10:16:19;5.95;;;3.90;;
75419;SDS011;63998;52.488;13.428;2023-06-22T10:18:44;4.07;;;3.67;;
75419;SDS011;63998;52.488;13.428;2023-06-22T10:21:10;7.47;;;3.97;;
75419;SDS011;63998;52.488;13.428;2023-06-22T10:23:35;4.07;;;3.57;;
75419;SDS011;63998;52.488;13.428;2023-06-22T10:26:00;7.00;;;4.43;;
75419;SDS011;63998;52.488;13.428;2023-06-22T10:28:25;4.90;;;3.30;;
75419;SDS011;63998;52.488;13.428;2023-06-22T10:30:51;8.70;;;3.83;;
75419;SDS011;63998;52.488;13.428;2023-06-22T10:33:16;5.23;;;4.33;;
75419;SDS011;63998;52.488;13.428;2023-06-22T10:35:41;8.30;;;5.07;;
75419;SDS011;63998;52.488;13.428;2023-06-22T10:38:06;5.83;;;3.70;;
75419;SDS011;63998;52.488;13.428;2023-06-22T10:40:32;5.63;;;4.13;;
75419;SDS011;63998;52.488;13.428;2023-06-22T10:42:58;5.35;;;4.75;;
75419;SDS011;63998;52.488;13.428;2023-06-22T10:45:23;4.70;;;3.33;;
75419;SDS011;63998;52.488;13.428;2023-06-22T10:47:48;3.90;;;3.50;;
75419;SDS011;63998;52.488;13.428;2023-06-22T10:50:14;4.80;;;3.20;;
75419;SDS011;63998;52.488;13.428;2023-06-22T10:52:39;5.80;;;5.13;;
75419;SDS011;63998;52.488;13.428;2023-06-22T10:55:06;6.32;;;4.70;;
75419;SDS011;63998;52.488;13.428;2023-06-22T10:57:32;3.50;;;3.15;;
75419;SDS011;63998;52.488;13.428;2023-06-22T10:59:57;3.60;;;3.10;;
75419;SDS011;63998;52.488;13.428;2023-06-22T11:02:23;7.13;;;3.90;;
75419;SDS011;63998;52.488;13.428;2023-06-22T11:04:48;5.45;;;3.45;;
75419;SDS011;63998;52.488;13.428;2023-06-22T11:07:14;4.30;;;3.90;;
75419;SDS011;63998;52.488;13.428;2023-06-22T11:09:40;4.95;;;3.70;;
75419;SDS011;63998;52.488;13.428;2023-06-22T11:12:06;4.57;;;3.60;;
75419;SDS011;63998;52.488;13.428;2023-06-22T11:14:31;4.72;;;3.10;;
75419;SDS011;63998;52.488;13.428;2023-06-22T11:16:58;5.10;;;3.47;;
75419;SDS011;63998;52.488;13.428;2023-06-22T11:19:23;5.63;;;3.70;;
75419;SDS011;63998;52.488;13.428;2023-06-22T11:21:49;5.27;;;4.07;;
75419;SDS011;63998;52.488;13.428;2023-06-22T11:24:14;3.57;;;3.10;;
75419;SDS011;63998;52.488;13.428;2023-06-22T11:26:40;4.60;;;3.00;;
75419;SDS011;63998;52.488;13.428;2023-06-22T11:29:06;4.67;;;3.40;;
75419;SDS011;63998;52.488;13.428;2023-06-22T11:31:32;5.18;;;3.28;;
75419;SDS011;63998;52.488;13.428;2023-06-22T11:33:59;5.07;;;3.60;;
75419;SDS011;63998;52.488;13.428;2023-06-22T11:36:24;4.67;;;3.70;;
75419;SDS011;63998;52.488;13.428;2023-06-22T11:38:50;4.22;;;3.30;;
75419;SDS011;63998;52.488;13.428;2023-06-22T11:41:16;4.30;;;3.28;;
75419;SDS011;63998;52.488;13.428;2023-06-22T11:43:41;5.13;;;3.55;;
75419;SDS011;63998;52.488;13.428;2023-06-22T11:46:07;4.10;;;3.60;;
75419;SDS011;63998;52.488;13.428;2023-06-22T11:48:32;3.65;;;3.22;;
75419;SDS011;63998;52.488;13.428;2023-06-22T11:50:57;4.23;;;3.27;;
75419;SDS011;63998;52.488;13.428;2023-06-22T11:53:24;6.15;;;4.40;;
75419;SDS011;63998;52.488;13.428;2023-06-22T11:55:51;5.68;;;3.95;;
75419;SDS011;63998;52.488;13.428;2023-06-22T11:58:16;4.95;;;3.80;;
75419;SDS011;63998;52.488;13.428;2023-06-22T12:00:41;3.92;;;3.42;;
75419;SDS011;63998;52.488;13.428;2023-06-22T12:03:07;5.80;;;3.20;;
75419;SDS011;63998;52.488;13.428;2023-06-22T12:05:33;5.38;;;3.67;;
75419;SDS011;63998;52.488;13.428;2023-06-22T12:07:58;4.03;;;3.00;;
75419;SDS011;63998;52.488;13.428;2023-06-22T12:10:24;9.60;;;7.33;;
75419;SDS011;63998;52.488;13.428;2023-06-22T12:12:50;4.10;;;3.67;;
75419;SDS011;63998;52.488;13.428;2023-06-22T12:15:15;5.30;;;4.23;;
75419;SDS011;63998;52.488;13.428;2023-06-22T12:17:41;7.43;;;4.90;;
75419;SDS011;63998;52.488;13.428;2023-06-22T12:20:06;6.67;;;4.77;;
75419;SDS011;63998;52.488;13.428;2023-06-22T12:22:32;15.68;;;5.15;;
75419;SDS011;63998;52.488;13.428;2023-06-22T12:24:58;3.45;;;3.15;;
75419;SDS011;63998;52.488;13.428;2023-06-22T12:27:23;8.10;;;5.37;;
75419;SDS011;63998;52.488;13.428;2023-06-22T12:29:48;5.73;;;4.80;;
75419;SDS011;63998;52.488;13.428;2023-06-22T12:32:14;8.60;;;4.57;;
75419;SDS011;63998;52.488;13.428;2023-06-22T12:34:41;5.53;;;4.30;;
75419;SDS011;63998;52.488;13.428;2023-06-22T12:37:07;5.93;;;3.80;;
75419;SDS011;63998;52.488;13.428;2023-06-22T12:39:32;5.77;;;4.30;;
75419;SDS011;63998;52.488;13.428;2023-06-22T12:41:58;5.57;;;3.80;;
75419;SDS011;63998;52.488;13.428;2023-06-22T12:44:23;4.80;;;3.78;;
75419;SDS011;63998;52.488;13.428;2023-06-22T12:46:48;4.00;;;3.60;;
75419;SDS011;63998;52.488;13.428;2023-06-22T12:49:14;3.40;;;3.10;;
75419;SDS011;63998;52.488;13.428;2023-06-22T12:51:40;4.57;;;3.70;;
75419;SDS011;63998;52.488;13.428;2023-06-22T12:54:07;22.65;;;5.80;;
75419;SDS011;63998;52.488;13.428;2023-06-22T12:56:32;16.97;;;6.13;;
75419;SDS011;63998;52.488;13.428;2023-06-22T12:58:57;7.28;;;5.05;;
75419;SDS011;63998;52.488;13.428;2023-06-22T13:01:23;10.38;;;4.38;;
75419;SDS011;63998;52.488;13.428;2023-06-22T13:03:49;6.18;;;4.43;;
75419;SDS011;63998;52.488;13.428;2023-06-22T13:06:14;8.30;;;6.60;;
75419;SDS011;63998;52.488;13.428;2023-06-22T13:08:39;7.20;;;5.83;;
75419;SDS011;63998;52.488;13.428;2023-06-22T13:11:05;7.85;;;4.80;;
75419;SDS011;63998;52.488;13.428;2023-06-22T13:13:30;4.73;;;4.20;;
75419;SDS011;63998;52.488;13.428;2023-06-22T13:15:56;6.57;;;5.30;;
75419;SDS011;63998;52.488;13.428;2023-06-22T13:18:21;6.13;;;4.53;;
75419;SDS011;63998;52.488;13.428;2023-06-22T13:20:46;4.73;;;3.90;;
75419;SDS011;63998;52.488;13.428;2023-06-22T13:23:12;4.17;;;3.70;;
75419;SDS011;63998;52.488;13.428;2023-06-22T13:25:37;4.25;;;3.85;;
75419;SDS011;63998;52.488;13.428;2023-06-22T13:28:03;4.55;;;4.13;;
75419;SDS011;63998;52.488;13.428;2023-06-22T13:30:28;5.18;;;4.18;;
75419;SDS011;63998;52.488;13.428;2023-06-22T13:32:54;4.65;;;4.25;;
75419;SDS011;63998;52.488;13.428;2023-06-22T13:35:19;4.70;;;4.03;;
75419;SDS011;63998;52.488;13.428;2023-06-22T13:37:44;7.57;;;4.13;;
75419;SDS011;63998;52.488;13.428;2023-06-22T13:49:56;6.07;;;3.95;;
75419;SDS011;63998;52.488;13.428;2023-06-22T13:52:22;4.65;;;4.00;;
75419;SDS011;63998;52.488;13.428;2023-06-22T13:54:48;4.43;;;3.83;;
75419;SDS011;63998;52.488;13.428;2023-06-22T13:57:13;10.40;;;8.43;;
75419;SDS011;63998;52.488;13.428;2023-06-22T13:59:38;5.75;;;5.05;;
75419;SDS011;63998;52.488;13.428;2023-06-22T14:02:04;14.90;;;11.23;;
75419;SDS011;63998;52.488;13.428;2023-06-22T14:04:29;8.13;;;7.32;;
75419;SDS011;63998;52.488;13.428;2023-06-22T14:06:55;5.35;;;4.50;;
75419;SDS011;63998;52.488;13.428;2023-06-22T14:09:21;4.57;;;4.18;;
75419;SDS011;63998;52.488;13.428;2023-06-22T14:11:46;4.03;;;3.58;;
75419;SDS011;63998;52.488;13.428;2023-06-22T14:14:11;5.10;;;4.18;;
75419;SDS011;63998;52.488;13.428;2023-06-22T14:16:37;7.00;;;6.28;;
75419;SDS011;63998;52.488;13.428;2023-06-22T14:19:02;8.05;;;7.05;;
75419;SDS011;63998;52.488;13.428;2023-06-22T14:21:28;5.40;;;4.90;;
75419;SDS011;63998;52.488;13.428;2023-06-22T14:23:53;14.23;;;10.67;;
75419;SDS011;63998;52.488;13.428;2023-06-22T14:26:18;6.25;;;4.50;;
75419;SDS011;63998;52.488;13.428;2023-06-22T14:28:47;4.95;;;4.07;;
75419;SDS011;63998;52.488;13.428;2023-06-22T14:31:15;4.78;;;3.65;;
75419;SDS011;63998;52.488;13.428;2023-06-22T14:33:44;7.05;;;4.55;;
75419;SDS011;63998;52.488;13.428;2023-06-22T14:36:14;5.43;;;4.80;;
75419;SDS011;63998;52.488;13.428;2023-06-22T14:38:39;4.95;;;4.53;;